sensor_id;sensor_type;location;lat;lon;timestamp;temperature;humidity
39371;DHT22;25099;51.946;4.838;2023-06-22T00:00:55;21.50;99.90
39371;DHT22;25099;51.946;4.838;2023-06-22T00:03:22;21.60;99.90
39371;DHT22;25099;51.946;4.838;2023-06-22T00:05:49;21.80;99.90
39371;DHT22;25099;51.946;4.838;2023-06-22T00:08:15;21.60;99.90
39371;DHT22;25099;51.946;4.838;2023-06-22T00:10:41;21.70;99.90
39371;DHT22;25099;51.946;4.838;2023-06-22T00:13:08;21.60;99.90
39371;DHT22;25099;51.946;4.838;2023-06-22T00:15:34;21.70;99.90
39371;DHT22;25099;51.946;4.838;2023-06-22T00:18:00;21.70;99.90
39371;DHT22;25099;51.946;4.838;2023-06-22T00:20:26;21.50;99.90
39371;DHT22;25099;51.946;4.838;2023-06-22T00:22:53;21.40;99.90
39371;DHT22;25099;51.946;4.838;2023-06-22T00:25:19;22.10;99.90
39371;DHT22;25099;51.946;4.838;2023-06-22T00:27:44;21.30;99.90
39371;DHT22;25099;51.946;4.838;2023-06-22T00:30:10;21.40;99.90
39371;DHT22;25099;51.946;4.838;2023-06-22T00:32:36;21.40;99.90
39371;DHT22;25099;51.946;4.838;2023-06-22T00:35:02;21.40;99.90
39371;DHT22;25099;51.946;4.838;2023-06-22T00:37:27;21.30;99.90
39371;DHT22;25099;51.946;4.838;2023-06-22T00:39:55;21.60;99.90
39371;DHT22;25099;51.946;4.838;2023-06-22T00:42:21;21.40;99.90
39371;DHT22;25099;51.946;4.838;2023-06-22T00:44:46;21.40;99.90
39371;DHT22;25099;51.946;4.838;2023-06-22T00:47:15;21.40;99.90
39371;DHT22;25099;51.946;4.838;2023-06-22T00:49:41;21.40;99.90
39371;DHT22;25099;51.946;4.838;2023-06-22T00:52:07;21.50;99.90
39371;DHT22;25099;51.946;4.838;2023-06-22T00:54:35;21.40;99.90
39371;DHT22;25099;51.946;4.838;2023-06-22T00:57:04;21.60;99.90
39371;DHT22;25099;51.946;4.838;2023-06-22T00:59:30;21.40;99.90
39371;DHT22;25099;51.946;4.838;2023-06-22T01:01:57;21.40;99.90
39371;DHT22;25099;51.946;4.838;2023-06-22T01:04:26;21.30;99.90
39371;DHT22;25099;51.946;4.838;2023-06-22T01:09:33;21.40;99.90
39371;DHT22;25099;51.946;4.838;2023-06-22T01:12:03;21.40;99.90
39371;DHT22;25099;51.946;4.838;2023-06-22T01:14:43;21.40;99.90
39371;DHT22;25099;51.946;4.838;2023-06-22T01:17:12;21.90;99.90
39371;DHT22;25099;51.946;4.838;2023-06-22T01:22:16;21.80;99.90
39371;DHT22;25099;51.946;4.838;2023-06-22T01:24:51;21.20;99.90
39371;DHT22;25099;51.946;4.838;2023-06-22T01:27:49;21.10;99.90
39371;DHT22;25099;51.946;4.838;2023-06-22T01:30:18;21.20;99.90
39371;DHT22;25099;51.946;4.838;2023-06-22T01:32:44;21.20;99.90
39371;DHT22;25099;51.946;4.838;2023-06-22T01:35:12;21.20;99.90
39371;DHT22;25099;51.946;4.838;2023-06-22T01:37:38;21.20;99.90
39371;DHT22;25099;51.946;4.838;2023-06-22T01:40:05;22.00;99.90
39371;DHT22;25099;51.946;4.838;2023-06-22T01:42:31;21.10;99.90
39371;DHT22;25099;51.946;4.838;2023-06-22T01:44:58;21.20;99.90
39371;DHT22;25099;51.946;4.838;2023-06-22T01:47:24;21.20;99.90
39371;DHT22;25099;51.946;4.838;2023-06-22T01:49:51;21.10;99.90
39371;DHT22;25099;51.946;4.838;2023-06-22T01:52:18;21.40;99.90
39371;DHT22;25099;51.946;4.838;2023-06-22T01:54:43;22.00;99.90
39371;DHT22;25099;51.946;4.838;2023-06-22T01:57:09;21.20;99.90
39371;DHT22;25099;51.946;4.838;2023-06-22T02:02:19;20.90;99.90
39371;DHT22;25099;51.946;4.838;2023-06-22T02:05:07;21.00;99.90
39371;DHT22;25099;51.946;4.838;2023-06-22T02:07:41;21.00;99.90
39371;DHT22;25099;51.946;4.838;2023-06-22T02:10:08;21.00;99.90
39371;DHT22;25099;51.946;4.838;2023-06-22T02:12:38;21.00;99.90
39371;DHT22;25099;51.946;4.838;2023-06-22T02:15:05;21.00;99.90
39371;DHT22;25099;51.946;4.838;2023-06-22T02:17:31;20.90;99.90
39371;DHT22;25099;51.946;4.838;2023-06-22T02:19:58;20.90;99.90
39371;DHT22;25099;51.946;4.838;2023-06-22T02:22:24;21.30;99.90
39371;DHT22;25099;51.946;4.838;2023-06-22T02:24:50;21.20;99.90
39371;DHT22;25099;51.946;4.838;2023-06-22T02:27:15;21.90;99.90
39371;DHT22;25099;51.946;4.838;2023-06-22T02:29:41;21.00;99.90
39371;DHT22;25099;51.946;4.838;2023-06-22T02:32:07;21.00;99.90
39371;DHT22;25099;51.946;4.838;2023-06-22T02:34:32;21.00;99.90
39371;DHT22;25099;51.946;4.838;2023-06-22T02:36:59;21.70;99.90
39371;DHT22;25099;51.946;4.838;2023-06-22T02:39:26;20.90;99.90
39371;DHT22;25099;51.946;4.838;2023-06-22T02:41:53;21.00;99.90
39371;DHT22;25099;51.946;4.838;2023-06-22T02:44:19;20.90;99.90
39371;DHT22;25099;51.946;4.838;2023-06-22T02:46:45;20.90;99.90
39371;DHT22;25099;51.946;4.838;2023-06-22T02:49:11;21.10;99.90
39371;DHT22;25099;51.946;4.838;2023-06-22T02:51:39;22.00;99.90
39371;DHT22;25099;51.946;4.838;2023-06-22T02:54:18;20.90;99.90
39371;DHT22;25099;51.946;4.838;2023-06-22T02:56:44;21.90;99.90
39371;DHT22;25099;51.946;4.838;2023-06-22T02:59:10;21.70;99.90
39371;DHT22;25099;51.946;4.838;2023-06-22T03:01:37;21.40;99.90
39371;DHT22;25099;51.946;4.838;2023-06-22T03:04:08;20.90;99.90
39371;DHT22;25099;51.946;4.838;2023-06-22T03:06:34;21.40;99.90
39371;DHT22;25099;51.946;4.838;2023-06-22T03:09:02;21.10;99.90
39371;DHT22;25099;51.946;4.838;2023-06-22T03:11:32;20.70;99.90
39371;DHT22;25099;51.946;4.838;2023-06-22T03:13:59;20.60;99.90
39371;DHT22;25099;51.946;4.838;2023-06-22T03:16:25;21.60;99.90
39371;DHT22;25099;51.946;4.838;2023-06-22T03:18:51;20.60;99.90
39371;DHT22;25099;51.946;4.838;2023-06-22T03:21:16;20.90;99.90
39371;DHT22;25099;51.946;4.838;2023-06-22T03:23:42;20.60;99.90
39371;DHT22;25099;51.946;4.838;2023-06-22T03:26:09;20.70;99.90
39371;DHT22;25099;51.946;4.838;2023-06-22T03:28:35;20.60;99.90
39371;DHT22;25099;51.946;4.838;2023-06-22T03:31:00;20.60;99.90
39371;DHT22;25099;51.946;4.838;2023-06-22T03:33:26;20.60;99.90
39371;DHT22;25099;51.946;4.838;2023-06-22T03:35:51;20.60;99.90
39371;DHT22;25099;51.946;4.838;2023-06-22T03:38:17;20.60;99.90
39371;DHT22;25099;51.946;4.838;2023-06-22T03:40:43;20.70;99.90
39371;DHT22;25099;51.946;4.838;2023-06-22T03:43:08;20.60;99.90
39371;DHT22;25099;51.946;4.838;2023-06-22T03:45:34;20.50;99.90
39371;DHT22;25099;51.946;4.838;2023-06-22T03:48:00;20.70;99.90
39371;DHT22;25099;51.946;4.838;2023-06-22T03:50:27;20.60;99.90
39371;DHT22;25099;51.946;4.838;2023-06-22T03:52:52;20.50;99.90
39371;DHT22;25099;51.946;4.838;2023-06-22T03:55:19;20.50;99.90
39371;DHT22;25099;51.946;4.838;2023-06-22T03:57:45;20.40;99.90
39371;DHT22;25099;51.946;4.838;2023-06-22T04:00:11;20.50;99.90
39371;DHT22;25099;51.946;4.838;2023-06-22T04:02:37;20.50;99.90
39371;DHT22;25099;51.946;4.838;2023-06-22T04:05:02;20.70;99.90
39371;DHT22;25099;51.946;4.838;2023-06-22T04:07:28;20.50;99.90
39371;DHT22;25099;51.946;4.838;2023-06-22T04:09:53;20.90;99.90
39371;DHT22;25099;51.946;4.838;2023-06-22T04:12:19;20.40;99.90
39371;DHT22;25099;51.946;4.838;2023-06-22T04:14:44;20.40;99.90
39371;DHT22;25099;51.946;4.838;2023-06-22T04:17:10;20.30;99.90
39371;DHT22;25099;51.946;4.838;2023-06-22T04:19:39;20.30;99.90
39371;DHT22;25099;51.946;4.838;2023-06-22T04:22:05;20.30;99.90
39371;DHT22;25099;51.946;4.838;2023-06-22T04:24:33;20.30;99.90
39371;DHT22;25099;51.946;4.838;2023-06-22T04:26:58;20.30;99.90
39371;DHT22;25099;51.946;4.838;2023-06-22T04:29:29;20.50;99.90
39371;DHT22;25099;51.946;4.838;2023-06-22T04:31:56;20.30;99.90
39371;DHT22;25099;51.946;4.838;2023-06-22T04:34:24;20.30;99.90
39371;DHT22;25099;51.946;4.838;2023-06-22T04:36:51;20.30;99.90
39371;DHT22;25099;51.946;4.838;2023-06-22T04:39:17;20.40;99.90
39371;DHT22;25099;51.946;4.838;2023-06-22T04:41:44;20.20;99.90
39371;DHT22;25099;51.946;4.838;2023-06-22T04:44:14;20.20;99.90
39371;DHT22;25099;51.946;4.838;2023-06-22T04:46:58;20.70;99.90
39371;DHT22;25099;51.946;4.838;2023-06-22T04:49:29;20.10;99.90
39371;DHT22;25099;51.946;4.838;2023-06-22T04:54:27;20.20;99.90
39371;DHT22;25099;51.946;4.838;2023-06-22T04:56:53;20.20;99.90
39371;DHT22;25099;51.946;4.838;2023-06-22T04:59:30;20.20;99.90
39371;DHT22;25099;51.946;4.838;2023-06-22T05:01:56;20.20;99.90
39371;DHT22;25099;51.946;4.838;2023-06-22T05:04:23;20.50;99.90
39371;DHT22;25099;51.946;4.838;2023-06-22T05:06:50;20.20;99.90
39371;DHT22;25099;51.946;4.838;2023-06-22T05:09:15;20.30;99.90
39371;DHT22;25099;51.946;4.838;2023-06-22T05:11:41;20.90;99.90
39371;DHT22;25099;51.946;4.838;2023-06-22T05:14:07;20.30;99.90
39371;DHT22;25099;51.946;4.838;2023-06-22T05:16:33;20.30;99.90
39371;DHT22;25099;51.946;4.838;2023-06-22T05:18:58;20.30;99.90
39371;DHT22;25099;51.946;4.838;2023-06-22T05:21:25;20.80;99.90
39371;DHT22;25099;51.946;4.838;2023-06-22T05:23:52;20.30;99.90
39371;DHT22;25099;51.946;4.838;2023-06-22T05:26:19;20.30;99.90
39371;DHT22;25099;51.946;4.838;2023-06-22T05:28:45;20.40;99.90
39371;DHT22;25099;51.946;4.838;2023-06-22T05:31:15;20.40;99.90
39371;DHT22;25099;51.946;4.838;2023-06-22T05:33:42;20.40;99.90
39371;DHT22;25099;51.946;4.838;2023-06-22T05:36:08;20.40;99.90
39371;DHT22;25099;51.946;4.838;2023-06-22T05:38:34;20.40;99.90
39371;DHT22;25099;51.946;4.838;2023-06-22T05:41:00;20.40;99.90
39371;DHT22;25099;51.946;4.838;2023-06-22T05:43:25;20.50;99.90
39371;DHT22;25099;51.946;4.838;2023-06-22T05:45:51;20.50;99.90
39371;DHT22;25099;51.946;4.838;2023-06-22T05:48:17;20.60;99.90
39371;DHT22;25099;51.946;4.838;2023-06-22T05:50:42;20.70;99.90
39371;DHT22;25099;51.946;4.838;2023-06-22T05:53:08;20.70;99.90
39371;DHT22;25099;51.946;4.838;2023-06-22T05:55:34;20.70;99.90
39371;DHT22;25099;51.946;4.838;2023-06-22T05:57:59;20.70;99.90
39371;DHT22;25099;51.946;4.838;2023-06-22T06:00:25;20.60;99.90
39371;DHT22;25099;51.946;4.838;2023-06-22T06:02:51;20.60;99.90
39371;DHT22;25099;51.946;4.838;2023-06-22T06:05:16;20.70;99.90
39371;DHT22;25099;51.946;4.838;2023-06-22T06:07:43;20.60;99.90
39371;DHT22;25099;51.946;4.838;2023-06-22T06:10:09;20.60;99.90
39371;DHT22;25099;51.946;4.838;2023-06-22T06:12:35;20.70;99.90
39371;DHT22;25099;51.946;4.838;2023-06-22T06:15:01;20.90;99.90
39371;DHT22;25099;51.946;4.838;2023-06-22T06:17:27;20.70;99.90
39371;DHT22;25099;51.946;4.838;2023-06-22T06:19:52;20.70;99.90
39371;DHT22;25099;51.946;4.838;2023-06-22T06:22:18;20.70;99.90
39371;DHT22;25099;51.946;4.838;2023-06-22T06:24:45;20.70;99.90
39371;DHT22;25099;51.946;4.838;2023-06-22T06:27:11;20.80;99.90
39371;DHT22;25099;51.946;4.838;2023-06-22T06:29:36;20.80;99.90
39371;DHT22;25099;51.946;4.838;2023-06-22T06:32:02;20.80;99.90
39371;DHT22;25099;51.946;4.838;2023-06-22T06:34:28;20.80;99.90
39371;DHT22;25099;51.946;4.838;2023-06-22T06:36:53;20.80;99.90
39371;DHT22;25099;51.946;4.838;2023-06-22T06:39:19;20.90;99.90
39371;DHT22;25099;51.946;4.838;2023-06-22T06:41:45;20.90;99.90
39371;DHT22;25099;51.946;4.838;2023-06-22T06:44:11;21.00;99.90
39371;DHT22;25099;51.946;4.838;2023-06-22T06:46:37;21.00;99.90
39371;DHT22;25099;51.946;4.838;2023-06-22T06:49:03;21.00;99.90
39371;DHT22;25099;51.946;4.838;2023-06-22T06:51:28;21.10;99.90
39371;DHT22;25099;51.946;4.838;2023-06-22T06:53:54;21.00;99.90
39371;DHT22;25099;51.946;4.838;2023-06-22T06:56:20;21.10;99.90
39371;DHT22;25099;51.946;4.838;2023-06-22T06:58:46;21.20;99.90
39371;DHT22;25099;51.946;4.838;2023-06-22T07:01:12;21.10;99.90
39371;DHT22;25099;51.946;4.838;2023-06-22T07:03:38;21.20;99.90
39371;DHT22;25099;51.946;4.838;2023-06-22T07:06:04;21.20;99.90
39371;DHT22;25099;51.946;4.838;2023-06-22T07:08:29;21.20;99.90
39371;DHT22;25099;51.946;4.838;2023-06-22T07:10:55;21.20;99.90
39371;DHT22;25099;51.946;4.838;2023-06-22T07:13:21;21.30;99.90
39371;DHT22;25099;51.946;4.838;2023-06-22T07:15:46;21.30;99.90
39371;DHT22;25099;51.946;4.838;2023-06-22T07:18:12;21.30;99.90
39371;DHT22;25099;51.946;4.838;2023-06-22T07:20:37;21.40;99.90
39371;DHT22;25099;51.946;4.838;2023-06-22T07:23:05;21.40;99.90
39371;DHT22;25099;51.946;4.838;2023-06-22T07:25:30;21.40;99.90
39371;DHT22;25099;51.946;4.838;2023-06-22T07:28:06;21.40;99.90
39371;DHT22;25099;51.946;4.838;2023-06-22T07:30:33;21.50;99.90
39371;DHT22;25099;51.946;4.838;2023-06-22T07:32:59;21.50;99.90
39371;DHT22;25099;51.946;4.838;2023-06-22T07:35:30;21.50;99.90
39371;DHT22;25099;51.946;4.838;2023-06-22T07:37:56;21.50;99.90
39371;DHT22;25099;51.946;4.838;2023-06-22T07:40:21;21.60;99.90
39371;DHT22;25099;51.946;4.838;2023-06-22T07:42:47;21.60;99.90
39371;DHT22;25099;51.946;4.838;2023-06-22T07:45:17;21.70;99.90
39371;DHT22;25099;51.946;4.838;2023-06-22T07:47:42;21.70;99.90
39371;DHT22;25099;51.946;4.838;2023-06-22T07:50:09;21.70;99.90
39371;DHT22;25099;51.946;4.838;2023-06-22T07:52:35;21.80;99.90
39371;DHT22;25099;51.946;4.838;2023-06-22T07:55:01;21.90;99.90
39371;DHT22;25099;51.946;4.838;2023-06-22T07:57:28;21.90;99.90
39371;DHT22;25099;51.946;4.838;2023-06-22T08:00:02;21.80;99.90
39371;DHT22;25099;51.946;4.838;2023-06-22T08:02:31;22.00;99.90
39371;DHT22;25099;51.946;4.838;2023-06-22T08:04:57;22.00;99.90
39371;DHT22;25099;51.946;4.838;2023-06-22T08:07:22;22.00;99.90
39371;DHT22;25099;51.946;4.838;2023-06-22T08:09:48;22.00;99.90
39371;DHT22;25099;51.946;4.838;2023-06-22T08:12:15;22.10;99.90
39371;DHT22;25099;51.946;4.838;2023-06-22T08:14:42;22.30;99.90
39371;DHT22;25099;51.946;4.838;2023-06-22T08:17:07;22.10;99.90
39371;DHT22;25099;51.946;4.838;2023-06-22T08:19:33;22.20;99.90
39371;DHT22;25099;51.946;4.838;2023-06-22T08:21:58;22.10;99.90
39371;DHT22;25099;51.946;4.838;2023-06-22T08:24:24;22.20;99.90
39371;DHT22;25099;51.946;4.838;2023-06-22T08:26:51;22.20;99.90
39371;DHT22;25099;51.946;4.838;2023-06-22T08:29:17;22.20;99.90
39371;DHT22;25099;51.946;4.838;2023-06-22T08:31:42;22.30;99.90
39371;DHT22;25099;51.946;4.838;2023-06-22T08:34:08;22.30;99.90
39371;DHT22;25099;51.946;4.838;2023-06-22T08:36:34;22.30;99.90
39371;DHT22;25099;51.946;4.838;2023-06-22T08:39:07;22.40;99.90
39371;DHT22;25099;51.946;4.838;2023-06-22T08:41:33;22.40;99.90
39371;DHT22;25099;51.946;4.838;2023-06-22T08:43:59;22.40;99.90
39371;DHT22;25099;51.946;4.838;2023-06-22T08:46:25;22.40;99.90
39371;DHT22;25099;51.946;4.838;2023-06-22T08:48:56;22.40;99.90
39371;DHT22;25099;51.946;4.838;2023-06-22T08:51:22;22.40;99.90
39371;DHT22;25099;51.946;4.838;2023-06-22T08:53:47;22.40;99.90
39371;DHT22;25099;51.946;4.838;2023-06-22T08:56:13;23.00;99.90
39371;DHT22;25099;51.946;4.838;2023-06-22T08:58:38;22.50;99.90
39371;DHT22;25099;51.946;4.838;2023-06-22T09:01:04;22.50;99.90
39371;DHT22;25099;51.946;4.838;2023-06-22T09:03:29;22.50;99.90
39371;DHT22;25099;51.946;4.838;2023-06-22T09:05:55;22.60;99.90
39371;DHT22;25099;51.946;4.838;2023-06-22T09:08:21;22.50;99.90
39371;DHT22;25099;51.946;4.838;2023-06-22T09:10:47;22.60;99.90
39371;DHT22;25099;51.946;4.838;2023-06-22T09:13:12;22.90;99.90
39371;DHT22;25099;51.946;4.838;2023-06-22T09:15:38;22.60;99.90
39371;DHT22;25099;51.946;4.838;2023-06-22T09:18:03;22.60;99.90
39371;DHT22;25099;51.946;4.838;2023-06-22T09:20:29;22.70;99.90
39371;DHT22;25099;51.946;4.838;2023-06-22T09:22:55;22.70;99.90
39371;DHT22;25099;51.946;4.838;2023-06-22T09:25:20;22.70;99.90
39371;DHT22;25099;51.946;4.838;2023-06-22T09:27:47;22.70;99.90
39371;DHT22;25099;51.946;4.838;2023-06-22T09:30:13;22.90;99.90
39371;DHT22;25099;51.946;4.838;2023-06-22T09:32:38;22.80;99.90
39371;DHT22;25099;51.946;4.838;2023-06-22T09:35:05;22.90;99.90
39371;DHT22;25099;51.946;4.838;2023-06-22T09:37:35;22.90;99.90
39371;DHT22;25099;51.946;4.838;2023-06-22T09:40:01;22.80;99.90
39371;DHT22;25099;51.946;4.838;2023-06-22T09:42:29;22.90;99.90
39371;DHT22;25099;51.946;4.838;2023-06-22T09:44:55;22.90;99.90
39371;DHT22;25099;51.946;4.838;2023-06-22T09:47:20;23.00;99.90
39371;DHT22;25099;51.946;4.838;2023-06-22T09:49:46;23.00;99.90
39371;DHT22;25099;51.946;4.838;2023-06-22T09:52:12;23.00;99.90
39371;DHT22;25099;51.946;4.838;2023-06-22T09:54:37;23.10;99.90
39371;DHT22;25099;51.946;4.838;2023-06-22T09:57:03;23.10;99.90
39371;DHT22;25099;51.946;4.838;2023-06-22T09:59:29;23.10;99.90
39371;DHT22;25099;51.946;4.838;2023-06-22T10:01:54;23.10;99.90
39371;DHT22;25099;51.946;4.838;2023-06-22T10:04:20;23.20;99.90
39371;DHT22;25099;51.946;4.838;2023-06-22T10:06:45;23.10;99.90
39371;DHT22;25099;51.946;4.838;2023-06-22T10:09:11;23.20;99.90
39371;DHT22;25099;51.946;4.838;2023-06-22T10:11:36;23.40;99.90
39371;DHT22;25099;51.946;4.838;2023-06-22T10:14:02;23.10;99.90
39371;DHT22;25099;51.946;4.838;2023-06-22T10:16:33;23.20;99.90
39371;DHT22;25099;51.946;4.838;2023-06-22T10:19:00;23.40;99.90
39371;DHT22;25099;51.946;4.838;2023-06-22T10:21:26;23.20;99.90
39371;DHT22;25099;51.946;4.838;2023-06-22T10:23:56;23.20;99.90
39371;DHT22;25099;51.946;4.838;2023-06-22T10:26:22;23.30;99.90
39371;DHT22;25099;51.946;4.838;2023-06-22T10:28:47;23.20;99.90
39371;DHT22;25099;51.946;4.838;2023-06-22T10:31:13;23.20;99.90
39371;DHT22;25099;51.946;4.838;2023-06-22T10:33:39;23.30;99.90
39371;DHT22;25099;51.946;4.838;2023-06-22T10:36:06;23.30;99.90
39371;DHT22;25099;51.946;4.838;2023-06-22T10:38:32;23.30;99.90
39371;DHT22;25099;51.946;4.838;2023-06-22T10:40:58;23.30;99.90
39371;DHT22;25099;51.946;4.838;2023-06-22T10:43:23;23.40;99.90
39371;DHT22;25099;51.946;4.838;2023-06-22T10:45:49;23.30;99.90
39371;DHT22;25099;51.946;4.838;2023-06-22T10:48:14;23.30;99.90
39371;DHT22;25099;51.946;4.838;2023-06-22T10:50:40;23.30;99.90
39371;DHT22;25099;51.946;4.838;2023-06-22T10:53:06;23.30;99.90
39371;DHT22;25099;51.946;4.838;2023-06-22T10:55:31;23.30;99.90
39371;DHT22;25099;51.946;4.838;2023-06-22T10:57:57;23.30;99.90
39371;DHT22;25099;51.946;4.838;2023-06-22T11:00:22;23.30;99.90
39371;DHT22;25099;51.946;4.838;2023-06-22T11:02:48;23.30;99.90
39371;DHT22;25099;51.946;4.838;2023-06-22T11:05:14;23.40;99.90
39371;DHT22;25099;51.946;4.838;2023-06-22T11:07:43;23.30;99.90
39371;DHT22;25099;51.946;4.838;2023-06-22T11:10:10;23.40;99.90
39371;DHT22;25099;51.946;4.838;2023-06-22T11:12:36;23.30;99.90
39371;DHT22;25099;51.946;4.838;2023-06-22T11:15:01;23.30;99.90
39371;DHT22;25099;51.946;4.838;2023-06-22T11:17:27;23.30;99.90
39371;DHT22;25099;51.946;4.838;2023-06-22T11:19:53;23.30;99.90
39371;DHT22;25099;51.946;4.838;2023-06-22T11:22:18;23.30;99.90
39371;DHT22;25099;51.946;4.838;2023-06-22T11:24:44;23.20;99.90
39371;DHT22;25099;51.946;4.838;2023-06-22T11:27:09;23.30;99.90
39371;DHT22;25099;51.946;4.838;2023-06-22T11:29:35;23.30;99.90
39371;DHT22;25099;51.946;4.838;2023-06-22T11:32:01;23.30;99.90
39371;DHT22;25099;51.946;4.838;2023-06-22T11:34:27;23.30;99.90
39371;DHT22;25099;51.946;4.838;2023-06-22T11:36:53;23.30;99.90
39371;DHT22;25099;51.946;4.838;2023-06-22T11:39:19;23.30;99.90
39371;DHT22;25099;51.946;4.838;2023-06-22T11:41:45;23.40;99.90
39371;DHT22;25099;51.946;4.838;2023-06-22T11:44:10;23.40;99.90
39371;DHT22;25099;51.946;4.838;2023-06-22T11:46:36;23.40;99.90
39371;DHT22;25099;51.946;4.838;2023-06-22T11:49:04;23.40;99.90
39371;DHT22;25099;51.946;4.838;2023-06-22T11:51:29;23.40;99.90
39371;DHT22;25099;51.946;4.838;2023-06-22T11:53:56;23.40;99.90
39371;DHT22;25099;51.946;4.838;2023-06-22T11:56:22;23.40;99.90
39371;DHT22;25099;51.946;4.838;2023-06-22T11:58:48;23.40;99.90
39371;DHT22;25099;51.946;4.838;2023-06-22T12:01:13;23.50;99.90
39371;DHT22;25099;51.946;4.838;2023-06-22T12:03:40;23.40;99.90
39371;DHT22;25099;51.946;4.838;2023-06-22T12:06:06;23.40;99.90
39371;DHT22;25099;51.946;4.838;2023-06-22T12:08:32;23.50;99.90
39371;DHT22;25099;51.946;4.838;2023-06-22T12:10:57;23.40;99.90
39371;DHT22;25099;51.946;4.838;2023-06-22T12:13:23;23.40;99.90
39371;DHT22;25099;51.946;4.838;2023-06-22T12:15:48;23.40;99.90
39371;DHT22;25099;51.946;4.838;2023-06-22T12:18:14;23.40;99.90
39371;DHT22;25099;51.946;4.838;2023-06-22T12:20:40;23.50;99.90
39371;DHT22;25099;51.946;4.838;2023-06-22T12:23:06;23.40;99.90
39371;DHT22;25099;51.946;4.838;2023-06-22T12:25:31;23.40;99.90
39371;DHT22;25099;51.946;4.838;2023-06-22T12:27:57;23.40;99.90
39371;DHT22;25099;51.946;4.838;2023-06-22T12:30:22;23.40;99.90
39371;DHT22;25099;51.946;4.838;2023-06-22T12:32:48;23.40;99.90
39371;DHT22;25099;51.946;4.838;2023-06-22T12:35:14;23.40;99.90
39371;DHT22;25099;51.946;4.838;2023-06-22T12:37:41;23.40;99.90
39371;DHT22;25099;51.946;4.838;2023-06-22T12:40:08;23.20;99.90
39371;DHT22;25099;51.946;4.838;2023-06-22T12:42:33;23.40;99.90
39371;DHT22;25099;51.946;4.838;2023-06-22T12:44:59;23.40;99.90
39371;DHT22;25099;51.946;4.838;2023-06-22T12:47:24;23.40;99.90
39371;DHT22;25099;51.946;4.838;2023-06-22T12:49:50;23.40;99.90
39371;DHT22;25099;51.946;4.838;2023-06-22T12:52:15;23.40;99.90
39371;DHT22;25099;51.946;4.838;2023-06-22T12:54:41;23.40;99.90
39371;DHT22;25099;51.946;4.838;2023-06-22T12:57:07;23.30;99.90
39371;DHT22;25099;51.946;4.838;2023-06-22T12:59:32;23.30;99.90
39371;DHT22;25099;51.946;4.838;2023-06-22T13:01:58;23.40;99.90
39371;DHT22;25099;51.946;4.838;2023-06-22T13:04:23;23.30;99.90
39371;DHT22;25099;51.946;4.838;2023-06-22T13:06:49;23.40;99.90
39371;DHT22;25099;51.946;4.838;2023-06-22T13:09:17;23.20;99.90
39371;DHT22;25099;51.946;4.838;2023-06-22T13:11:43;23.30;99.90
39371;DHT22;25099;51.946;4.838;2023-06-22T13:14:08;23.20;99.90
39371;DHT22;25099;51.946;4.838;2023-06-22T13:16:34;23.20;99.90
39371;DHT22;25099;51.946;4.838;2023-06-22T13:19:00;23.20;99.90
39371;DHT22;25099;51.946;4.838;2023-06-22T13:21:26;23.20;99.90
39371;DHT22;25099;51.946;4.838;2023-06-22T13:23:51;23.10;99.90
39371;DHT22;25099;51.946;4.838;2023-06-22T13:26:17;23.00;99.90
39371;DHT22;25099;51.946;4.838;2023-06-22T13:28:43;23.00;99.90
39371;DHT22;25099;51.946;4.838;2023-06-22T13:31:08;23.00;99.90
39371;DHT22;25099;51.946;4.838;2023-06-22T13:33:34;23.00;99.90
39371;DHT22;25099;51.946;4.838;2023-06-22T13:35:59;22.90;99.90
39371;DHT22;25099;51.946;4.838;2023-06-22T13:38:25;22.80;99.90
39371;DHT22;25099;51.946;4.838;2023-06-22T13:40:51;22.80;99.90
39371;DHT22;25099;51.946;4.838;2023-06-22T13:43:16;23.10;99.90
39371;DHT22;25099;51.946;4.838;2023-06-22T13:45:42;22.80;99.90
39371;DHT22;25099;51.946;4.838;2023-06-22T13:48:09;22.70;99.90
39371;DHT22;25099;51.946;4.838;2023-06-22T13:50:35;22.60;99.90
39371;DHT22;25099;51.946;4.838;2023-06-22T13:53:01;22.60;99.90
39371;DHT22;25099;51.946;4.838;2023-06-22T13:55:26;22.50;99.90
39371;DHT22;25099;51.946;4.838;2023-06-22T13:57:52;22.50;99.90
39371;DHT22;25099;51.946;4.838;2023-06-22T14:00:18;22.50;99.90
39371;DHT22;25099;51.946;4.838;2023-06-22T14:02:44;22.50;99.90
39371;DHT22;25099;51.946;4.838;2023-06-22T14:05:09;22.50;99.90
39371;DHT22;25099;51.946;4.838;2023-06-22T14:07:36;22.40;99.90
39371;DHT22;25099;51.946;4.838;2023-06-22T14:10:03;22.50;99.90
39371;DHT22;25099;51.946;4.838;2023-06-22T14:12:29;22.40;99.90
39371;DHT22;25099;51.946;4.838;2023-06-22T14:14:54;22.40;99.90
39371;DHT22;25099;51.946;4.838;2023-06-22T14:17:20;22.50;99.90
39371;DHT22;25099;51.946;4.838;2023-06-22T14:19:49;22.50;99.90
39371;DHT22;25099;51.946;4.838;2023-06-22T14:22:17;22.40;99.90
39371;DHT22;25099;51.946;4.838;2023-06-22T14:24:43;22.30;99.90
39371;DHT22;25099;51.946;4.838;2023-06-22T14:27:08;22.30;99.90
39371;DHT22;25099;51.946;4.838;2023-06-22T14:29:35;22.40;99.90
39371;DHT22;25099;51.946;4.838;2023-06-22T14:32:00;22.30;99.90
39371;DHT22;25099;51.946;4.838;2023-06-22T14:34:26;22.70;99.90
39371;DHT22;25099;51.946;4.838;2023-06-22T14:36:52;22.20;99.90
39371;DHT22;25099;51.946;4.838;2023-06-22T14:39:17;22.20;99.90
39371;DHT22;25099;51.946;4.838;2023-06-22T14:41:43;22.10;99.90
39371;DHT22;25099;51.946;4.838;2023-06-22T14:44:10;22.10;99.90
39371;DHT22;25099;51.946;4.838;2023-06-22T14:46:35;22.10;99.90
39371;DHT22;25099;51.946;4.838;2023-06-22T14:49:01;22.10;99.90
39371;DHT22;25099;51.946;4.838;2023-06-22T14:51:26;22.00;99.90
39371;DHT22;25099;51.946;4.838;2023-06-22T14:53:52;22.00;99.90
39371;DHT22;25099;51.946;4.838;2023-06-22T14:56:18;21.90;99.90
39371;DHT22;25099;51.946;4.838;2023-06-22T14:58:44;21.90;99.90
39371;DHT22;25099;51.946;4.838;2023-06-22T15:01:11;22.50;99.90
39371;DHT22;25099;51.946;4.838;2023-06-22T15:03:36;22.10;99.90
39371;DHT22;25099;51.946;4.838;2023-06-22T15:06:03;21.50;99.90
39371;DHT22;25099;51.946;4.838;2023-06-22T15:08:29;21.70;99.90
39371;DHT22;25099;51.946;4.838;2023-06-22T15:10:55;21.70;99.90
39371;DHT22;25099;51.946;4.838;2023-06-22T15:13:21;21.60;99.90
39371;DHT22;25099;51.946;4.838;2023-06-22T15:15:48;21.60;99.90
39371;DHT22;25099;51.946;4.838;2023-06-22T15:18:15;21.70;99.90
39371;DHT22;25099;51.946;4.838;2023-06-22T15:20:41;21.70;99.90
39371;DHT22;25099;51.946;4.838;2023-06-22T15:23:09;21.70;99.90
39371;DHT22;25099;51.946;4.838;2023-06-22T15:25:35;21.70;99.90
39371;DHT22;25099;51.946;4.838;2023-06-22T15:28:01;21.60;99.90
39371;DHT22;25099;51.946;4.838;2023-06-22T15:30:29;21.60;99.90
39371;DHT22;25099;51.946;4.838;2023-06-22T15:32:57;21.60;99.90
39371;DHT22;25099;51.946;4.838;2023-06-22T15:35:23;21.50;99.90